Time;durP1;ratioP1;P1;durP2;ratioP2;P2;SDS_P1;SDS_P2;PMS_P1;PMS_P2;Temp;Humidity;BMP_temperature;BMP_pressure;BME280_temperature;BME280_humidity;BME280_pressure;Samples;Min_cycle;Max_cycle;Signal;HPM_P1;HPM_P2
2022/11/28 00:01:50;;;;;;;10.45;7.40;;;6.70;99.90;;;;;;5081836;28;20049;-71
2022/11/28 00:04:16;;;;;;;9.57;6.47;;;6.80;99.90;;;;;;5065502;28;20076;-71
2022/11/28 00:06:45;;;;;;;10.70;7.28;;;6.70;99.90;;;;;;5064829;28;20048;-71
2022/11/28 00:09:12;;;;;;;10.85;7.60;;;6.70;99.90;;;;;;5065231;28;20068;-71
2022/11/28 00:11:39;;;;;;;11.52;7.22;;;6.70;99.90;;;;;;5033470;28;20127;-70
2022/11/28 00:14:05;;;;;;;8.60;6.57;;;6.90;99.90;;;;;;5065377;28;20502;-71
2022/11/28 00:16:31;;;;;;;9.80;6.82;;;6.80;99.90;;;;;;5075380;28;20037;-71
2022/11/28 00:18:59;;;;;;;11.40;7.28;;;6.80;99.90;;;;;;5042746;28;20071;-71
2022/11/28 00:21:25;;;;;;;8.30;6.93;;;6.80;99.90;;;;;;5054626;28;20544;-71
2022/11/28 00:23:51;;;;;;;11.95;7.13;;;6.80;99.90;;;;;;5052435;28;20497;-71
2022/11/28 00:26:20;;;;;;;10.35;6.43;;;6.80;99.90;;;;;;5046121;28;20080;-71
2022/11/28 00:28:47;;;;;;;10.57;7.10;;;7.00;99.90;;;;;;5040583;28;20379;-71
2022/11/28 00:31:14;;;;;;;9.30;7.75;;;6.90;99.90;;;;;;5059448;28;20052;-71
2022/11/28 00:33:40;;;;;;;10.60;7.07;;;6.90;99.90;;;;;;5084936;28;20053;-71
2022/11/28 00:36:06;;;;;;;12.27;7.65;;;7.00;99.90;;;;;;5043263;28;20098;-71
2022/11/28 00:38:32;;;;;;;9.77;7.38;;;6.90;99.90;;;;;;5052997;28;20053;-70
2022/11/28 00:41:06;;;;;;;8.80;7.20;;;6.80;99.90;;;;;;5053269;28;20048;-70
2022/11/28 00:43:32;;;;;;;11.90;7.03;;;6.90;99.90;;;;;;5040447;28;20049;-70
2022/11/28 00:45:59;;;;;;;11.05;7.30;;;7.00;99.90;;;;;;5053232;28;20086;-71
2022/11/28 00:48:25;;;;;;;10.43;7.03;;;6.90;99.90;;;;;;5035507;28;20049;-71
2022/11/28 00:50:52;;;;;;;11.43;7.30;;;6.90;99.90;;;;;;5052564;28;20052;-70
2022/11/28 00:53:17;;;;;;;10.50;6.85;;;6.90;99.90;;;;;;5045519;28;20073;-70
2022/11/28 00:55:43;;;;;;;11.63;8.20;;;6.90;99.90;;;;;;5081297;28;20040;-71
2022/11/28 00:58:09;;;;;;;10.05;8.18;;;6.80;99.90;;;;;;5054357;28;20060;-71
2022/11/28 01:00:35;;;;;;;12.00;7.65;;;6.90;99.90;;;;;;5065271;28;20056;-70
2022/11/28 01:03:01;;;;;;;10.10;7.53;;;6.80;99.90;;;;;;5072755;28;20055;-71
2022/11/28 01:05:26;;;;;;;12.18;7.60;;;6.80;99.90;;;;;;5028633;28;20475;-71
2022/11/28 01:07:52;;;;;;;12.80;7.93;;;6.90;99.90;;;;;;5072227;28;20055;-70
2022/11/28 01:10:18;;;;;;;10.68;7.10;;;6.90;99.90;;;;;;5080387;28;20110;-70
2022/11/28 01:12:44;;;;;;;10.15;7.53;;;6.90;99.90;;;;;;5054894;28;20052;-71
2022/11/28 01:15:11;;;;;;;11.30;7.90;;;6.80;99.90;;;;;;5048279;28;20049;-71
2022/11/28 01:17:37;;;;;;;12.40;7.47;;;7.00;99.90;;;;;;5055565;28;20076;-71
2022/11/28 01:20:06;;;;;;;10.85;7.30;;;6.90;99.90;;;;;;5063768;28;20044;-71
2022/11/28 01:22:31;;;;;;;12.30;7.68;;;6.90;99.90;;;;;;5060939;28;20138;-71
2022/11/28 01:24:57;;;;;;;9.75;7.43;;;6.90;99.90;;;;;;5065459;28;20084;-71
2022/11/28 01:27:23;;;;;;;8.93;7.50;;;6.80;99.90;;;;;;5042795;28;20046;-71
2022/11/28 01:29:49;;;;;;;11.02;7.82;;;6.90;99.90;;;;;;5069089;28;20488;-71
2022/11/28 01:32:14;;;;;;;10.77;7.78;;;6.90;99.90;;;;;;5073453;28;20148;-71
2022/11/28 01:34:40;;;;;;;12.75;8.10;;;6.90;99.90;;;;;;5052034;28;20037;-71
2022/11/28 01:37:06;;;;;;;10.10;7.57;;;6.80;99.90;;;;;;5084899;28;20493;-71
2022/11/28 01:39:31;;;;;;;9.73;7.40;;;6.80;99.90;;;;;;5053960;28;20110;-71
2022/11/28 01:41:57;;;;;;;13.20;7.78;;;6.90;99.90;;;;;;5052113;28;20049;-71
2022/11/28 01:44:48;;;;;;;10.98;7.55;;;6.90;99.90;;;;;;5071703;28;20517;-70
2022/11/28 01:47:19;;;;;;;14.00;7.78;;;6.90;99.90;;;;;;5018102;28;20113;-70
2022/11/28 01:49:46;;;;;;;14.80;8.18;;;6.90;99.90;;;;;;5046444;28;20067;-71
2022/11/28 01:52:16;;;;;;;11.13;7.78;;;6.90;99.90;;;;;;5081176;28;20610;-71
2022/11/28 01:54:45;;;;;;;12.13;8.20;;;6.90;99.90;;;;;;5050522;28;20087;-71
2022/11/28 01:57:15;;;;;;;13.85;8.85;;;6.90;99.90;;;;;;5050884;28;20049;-71
2022/11/28 01:59:46;;;;;;;11.90;8.55;;;6.90;99.90;;;;;;5096702;28;20087;-71
2022/11/28 02:02:18;;;;;;;12.60;8.45;;;6.90;99.90;;;;;;5075944;28;20057;-71
2022/11/28 02:04:46;;;;;;;12.23;8.07;;;6.90;99.90;;;;;;5051732;28;20048;-71
2022/11/28 02:07:12;;;;;;;10.70;8.30;;;6.90;99.90;;;;;;5049832;28;20041;-71
2022/11/28 02:09:38;;;;;;;11.10;8.80;;;6.80;99.90;;;;;;5050485;28;20082;-71
2022/11/28 02:12:27;;;;;;;12.63;8.05;;;6.90;99.90;;;;;;5048477;28;21992;-71
2022/11/28 02:15:10;;;;;;;11.30;8.23;;;6.80;99.90;;;;;;5044119;28;20057;-71
2022/11/28 02:18:07;;;;;;;13.02;8.70;;;6.90;99.90;;;;;;5052353;28;20068;-71
2022/11/28 02:21:05;;;;;;;12.52;8.73;;;6.80;99.90;;;;;;5087559;28;20116;-71
2022/11/28 02:23:48;;;;;;;12.20;8.05;;;7.00;99.90;;;;;;5086664;28;20508;-71
2022/11/28 02:26:33;;;;;;;10.20;7.38;;;7.00;99.90;;;;;;5076874;28;20049;-71
2022/11/28 02:29:20;;;;;;;12.13;8.20;;;6.90;99.90;;;;;;5087460;28;20116;-70
2022/11/28 02:32:23;;;;;;;11.13;8.30;;;7.00;99.90;;;;;;5068881;28;20052;-70
2022/11/28 02:35:00;;;;;;;13.68;8.07;;;7.00;99.90;;;;;;5062234;28;20048;-70
2022/11/28 02:37:34;;;;;;;10.55;8.10;;;7.00;99.90;;;;;;5068725;28;20129;-71
2022/11/28 02:40:18;;;;;;;12.07;7.93;;;7.00;99.90;;;;;;5066225;28;20045;-71
2022/11/28 02:42:53;;;;;;;11.02;8.32;;;7.10;99.90;;;;;;5039579;28;20056;-71
2022/11/28 02:45:28;;;;;;;11.70;7.85;;;7.00;99.90;;;;;;5059348;28;20401;-71
2022/11/28 02:48:02;;;;;;;12.10;8.10;;;7.10;99.90;;;;;;5034490;28;20056;-71
2022/11/28 02:50:50;;;;;;;13.35;8.70;;;7.20;99.90;;;;;;5055432;28;20049;-71
2022/11/28 02:53:23;;;;;;;11.35;8.68;;;7.10;99.90;;;;;;5023842;28;20049;-71
2022/11/28 02:55:50;;;;;;;12.13;9.07;;;7.10;99.90;;;;;;5063356;28;20062;-71
2022/11/28 02:58:17;;;;;;;10.85;8.13;;;7.00;99.90;;;;;;5052565;28;20072;-70
2022/11/28 03:00:47;;;;;;;12.02;8.43;;;7.00;99.90;;;;;;5043104;28;20110;-70
2022/11/28 03:03:22;;;;;;;;;;;7.10;99.90;;;;;;5056052;28;20437;-70
2022/11/28 03:06:07;;;;;;;12.10;8.43;;;7.10;99.90;;;;;;5085927;28;19920;-70
2022/11/28 03:09:09;;;;;;;11.20;8.70;;;7.10;99.90;;;;;;5030622;28;20053;-70
2022/11/28 03:12:11;;;;;;;12.25;9.00;;;7.10;99.90;;;;;;5069474;28;20049;-70
2022/11/28 03:14:42;;;;;;;13.27;9.00;;;7.10;99.90;;;;;;5042808;28;20080;-70
2022/11/28 03:17:15;;;;;;;13.82;9.05;;;7.10;99.90;;;;;;5055729;28;20041;-71
2022/11/28 03:19:50;;;;;;;13.27;9.15;;;7.10;99.90;;;;;;5066162;28;20401;-71
2022/11/28 03:22:43;;;;;;;16.05;8.98;;;7.20;99.90;;;;;;5053484;28;20053;-71
2022/11/28 03:25:35;;;;;;;11.85;9.55;;;7.20;99.90;;;;;;5050749;28;20079;-71
2022/11/28 03:28:43;;;;;;;13.18;8.70;;;7.10;99.90;;;;;;5030452;28;20049;-71
2022/11/28 03:31:14;;;;;;;14.50;10.05;;;7.20;99.90;;;;;;5021068;28;20109;-71
2022/11/28 03:33:46;;;;;;;11.82;9.10;;;7.10;99.90;;;;;;5087833;28;20131;-71
2022/11/28 03:36:41;;;;;;;13.55;9.30;;;7.10;99.90;;;;;;5070553;28;20039;-71
2022/11/28 03:39:23;;;;;;;13.02;9.57;;;7.20;99.90;;;;;;5082508;28;20066;-71
2022/11/28 03:42:19;;;;;;;11.55;9.15;;;7.30;99.90;;;;;;5071731;28;20104;-71
2022/11/28 03:44:59;;;;;;;13.70;10.07;;;7.40;99.90;;;;;;5084134;28;20086;-71
2022/11/28 03:47:29;;;;;;;12.93;9.73;;;7.40;99.90;;;;;;5053829;28;20061;-70
2022/11/28 03:49:59;;;;;;;16.15;9.55;;;7.40;99.90;;;;;;5058755;28;20139;-71
2022/11/28 03:52:34;;;;;;;13.85;10.07;;;7.40;99.90;;;;;;5047960;28;20056;-71
2022/11/28 03:55:22;;;;;;;15.48;11.30;;;7.40;99.90;;;;;;5047036;28;20052;-70
2022/11/28 03:58:00;;;;;;;14.85;9.85;;;7.50;99.90;;;;;;5049230;28;20126;-71
2022/11/28 04:00:26;;;;;;;15.38;10.25;;;7.50;99.90;;;;;;5071524;28;20576;-70
2022/11/28 04:03:16;;;;;;;18.27;11.48;;;7.50;99.90;;;;;;5058518;28;20072;-71
2022/11/28 04:06:01;;;;;;;13.20;10.43;;;7.40;99.90;;;;;;5048035;28;20048;-71
2022/11/28 04:08:42;;;;;;;17.77;11.48;;;7.50;99.90;;;;;;5063457;28;20052;-71
2022/11/28 04:11:13;;;;;;;14.88;10.65;;;7.50;99.90;;;;;;5056344;28;20041;-70
2022/11/28 04:13:54;;;;;;;14.35;11.15;;;7.60;99.90;;;;;;5057933;28;20045;-70
2022/11/28 04:16:41;;;;;;;18.75;12.73;;;7.60;99.90;;;;;;5061094;28;20048;-71
2022/11/28 04:19:21;;;;;;;18.50;12.32;;;7.60;99.90;;;;;;5061969;28;20105;-71
2022/11/28 04:21:59;;;;;;;18.67;13.13;;;7.60;99.90;;;;;;5045355;28;20109;-70
2022/11/28 04:24:30;;;;;;;16.42;12.73;;;7.60;99.90;;;;;;5040045;28;20060;-71
2022/11/28 04:27:26;;;;;;;17.52;13.43;;;7.70;99.90;;;;;;5062295;28;20052;-71
2022/11/28 04:29:59;;;;;;;16.80;12.85;;;7.70;99.90;;;;;;5027751;28;20057;-71
2022/11/28 04:32:29;;;;;;;18.35;14.13;;;7.60;99.90;;;;;;5014967;28;20116;-71
2022/11/28 04:35:03;;;;;;;20.83;14.52;;;7.60;99.90;;;;;;5075850;28;20067;-71
2022/11/28 04:37:31;;;;;;;19.52;14.75;;;7.60;99.90;;;;;;5046850;28;20489;-71
2022/11/28 04:39:59;;;;;;;21.00;16.40;;;7.70;99.90;;;;;;5040433;28;20048;-71
2022/11/28 04:42:36;;;;;;;21.50;16.35;;;7.60;99.90;;;;;;5061654;28;20109;-70
2022/11/28 04:45:16;;;;;;;22.42;16.90;;;7.60;99.90;;;;;;5035351;28;20053;-71
2022/11/28 04:47:43;;;;;;;;;;;7.80;99.90;;;;;;5060907;28;20053;-71
2022/11/28 04:50:12;;;;;;;19.92;16.52;;;7.70;99.90;;;;;;5032185;28;19971;-70
2022/11/28 04:53:09;;;;;;;24.55;18.40;;;7.60;99.90;;;;;;5041696;28;20056;-71
2022/11/28 04:55:45;;;;;;;25.55;19.38;;;7.60;99.90;;;;;;5084387;28;20044;-71
2022/11/28 04:58:14;;;;;;;23.27;19.15;;;7.70;99.90;;;;;;5071149;28;20048;-71
2022/11/28 05:00:41;;;;;;;27.13;21.33;;;7.80;99.90;;;;;;5046104;28;20045;-71
2022/11/28 05:03:08;;;;;;;26.70;20.23;;;7.80;99.90;;;;;;5053993;28;20056;-71
2022/11/28 05:05:49;;;;;;;26.20;20.02;;;7.80;99.90;;;;;;5041605;28;20045;-70
2022/11/28 05:08:14;;;;;;;26.85;21.83;;;7.70;99.90;;;;;;5057526;28;20040;-71
2022/11/28 05:10:41;;;;;;;28.25;21.50;;;7.80;99.90;;;;;;5050255;28;20049;-70
2022/11/28 05:13:06;;;;;;;28.73;21.80;;;7.70;99.90;;;;;;5030666;28;20054;-70
2022/11/28 05:15:32;;;;;;;31.48;22.83;;;7.70;99.90;;;;;;5066454;28;20049;-71
2022/11/28 05:17:58;;;;;;;32.33;23.85;;;7.70;99.90;;;;;;5037118;28;20045;-71
2022/11/28 05:20:24;;;;;;;26.90;20.85;;;7.70;99.90;;;;;;5034552;28;20065;-71
2022/11/28 05:22:50;;;;;;;27.73;20.75;;;7.70;99.90;;;;;;5083639;28;20104;-71
2022/11/28 05:25:16;;;;;;;28.85;20.65;;;7.90;99.90;;;;;;5036585;28;20048;-70
2022/11/28 05:27:41;;;;;;;28.10;22.33;;;7.90;99.90;;;;;;5067168;28;20102;-70
2022/11/28 05:30:08;;;;;;;28.90;21.55;;;7.90;99.90;;;;;;5069439;28;20045;-70
2022/11/28 05:32:35;;;;;;;29.88;22.15;;;7.90;99.90;;;;;;5033811;28;20112;-69
2022/11/28 05:35:02;;;;;;;29.92;21.73;;;8.00;99.90;;;;;;5052349;28;20072;-68
2022/11/28 05:37:28;;;;;;;31.10;24.00;;;7.90;99.90;;;;;;5059693;28;20061;-67
2022/11/28 05:39:53;;;;;;;32.92;22.25;;;7.90;99.90;;;;;;5061840;28;20045;-67
2022/11/28 05:42:19;;;;;;;31.40;23.42;;;7.90;99.90;;;;;;5075119;28;20043;-67
2022/11/28 05:44:46;;;;;;;30.40;23.25;;;7.90;99.90;;;;;;5037156;28;20071;-67
2022/11/28 05:47:12;;;;;;;34.83;24.85;;;8.00;99.90;;;;;;5051097;28;20052;-69
2022/11/28 05:49:38;;;;;;;33.25;23.52;;;7.80;99.90;;;;;;5031371;28;20080;-67
2022/11/28 05:52:04;;;;;;;34.30;25.58;;;7.90;99.90;;;;;;5029461;28;20048;-68
2022/11/28 05:54:30;;;;;;;34.75;25.60;;;8.00;99.90;;;;;;5053053;28;20044;-68
2022/11/28 05:56:56;;;;;;;33.60;25.35;;;7.90;99.90;;;;;;5070334;28;21502;-69
2022/11/28 05:59:21;;;;;;;32.55;24.90;;;8.00;99.90;;;;;;5041244;28;20515;-67
2022/11/28 06:01:47;;;;;;;30.73;24.10;;;7.90;99.90;;;;;;5036501;28;20120;-72
2022/11/28 06:04:13;;;;;;;33.03;26.75;;;8.00;99.90;;;;;;5035384;28;20241;-69
2022/11/28 06:06:38;;;;;;;35.08;25.67;;;8.00;99.90;;;;;;5038598;28;20067;-68
2022/11/28 06:09:04;;;;;;;33.65;24.70;;;8.00;99.90;;;;;;5031322;28;20040;-68
2022/11/28 06:11:32;;;;;;;37.42;27.50;;;8.00;99.90;;;;;;5043241;28;20118;-68
2022/11/28 06:13:58;;;;;;;39.28;26.73;;;8.00;99.90;;;;;;5049118;28;20056;-69
2022/11/28 06:16:27;;;;;;;34.60;25.10;;;8.10;99.90;;;;;;5043880;28;20041;-67
2022/11/28 06:18:54;;;;;;;37.55;28.48;;;8.10;99.90;;;;;;5030948;28;20373;-67
2022/11/28 06:21:20;;;;;;;34.28;26.05;;;8.00;99.90;;;;;;5041165;28;20044;-67
2022/11/28 06:23:46;;;;;;;34.05;25.38;;;8.10;99.90;;;;;;5050375;28;20074;-67
2022/11/28 06:26:15;;;;;;;34.65;26.00;;;8.10;99.90;;;;;;5045417;28;20044;-67
2022/11/28 06:28:41;;;;;;;37.08;26.63;;;8.10;99.90;;;;;;5049519;28;20056;-67
2022/11/28 06:31:12;;;;;;;33.50;25.05;;;8.10;99.90;;;;;;5061719;28;20048;-67
2022/11/28 06:33:37;;;;;;;31.73;23.98;;;8.10;99.90;;;;;;5021730;28;20052;-67
2022/11/28 06:36:04;;;;;;;33.08;24.73;;;8.10;99.90;;;;;;5044983;28;20064;-66
2022/11/28 06:38:31;;;;;;;31.30;23.40;;;8.10;99.90;;;;;;5047444;28;20049;-67
2022/11/28 06:40:58;;;;;;;30.38;24.13;;;8.00;99.90;;;;;;5043574;28;20076;-67
2022/11/28 06:43:25;;;;;;;29.25;22.52;;;8.20;99.90;;;;;;5062798;28;20064;-67
2022/11/28 06:45:50;;;;;;;30.55;22.67;;;8.00;99.90;;;;;;5043219;28;20529;-66
2022/11/28 06:48:16;;;;;;;29.10;21.83;;;8.10;99.90;;;;;;5039356;28;20072;-67
2022/11/28 06:50:42;;;;;;;25.90;21.33;;;8.10;99.90;;;;;;5050961;28;20044;-67
2022/11/28 06:53:08;;;;;;;27.10;21.30;;;8.10;99.90;;;;;;5057226;28;20072;-67
2022/11/28 06:55:33;;;;;;;27.60;20.85;;;8.10;99.90;;;;;;5060267;28;20425;-67
2022/11/28 06:57:59;;;;;;;23.63;19.75;;;8.00;99.90;;;;;;5055400;28;20066;-68
2022/11/28 07:00:25;;;;;;;27.15;20.52;;;8.00;99.90;;;;;;5059133;28;20048;-67
2022/11/28 07:02:50;;;;;;;24.40;20.33;;;8.00;99.90;;;;;;5054507;28;20059;-67
2022/11/28 07:05:16;;;;;;;23.33;18.70;;;8.00;99.90;;;;;;5067972;28;20044;-67
2022/11/28 07:07:42;;;;;;;23.35;18.88;;;8.00;99.90;;;;;;5042116;28;20071;-67
2022/11/28 07:10:08;;;;;;;22.77;18.27;;;8.00;99.90;;;;;;5064699;28;20045;-67
2022/11/28 07:12:34;;;;;;;21.92;18.02;;;8.10;99.90;;;;;;5065553;28;20048;-67
2022/11/28 07:14:59;;;;;;;22.83;18.63;;;8.00;99.90;;;;;;5041825;28;20145;-67
2022/11/28 07:17:25;;;;;;;21.55;17.45;;;8.10;99.90;;;;;;5058503;28;20090;-67
2022/11/28 07:19:51;;;;;;;21.30;16.73;;;8.00;99.90;;;;;;5045350;28;20037;-67
2022/11/28 07:22:17;;;;;;;20.15;17.00;;;8.00;99.90;;;;;;5055331;28;20029;-67
2022/11/28 07:24:42;;;;;;;21.38;17.38;;;8.00;99.90;;;;;;5063066;28;20041;-67
2022/11/28 07:27:08;;;;;;;22.60;17.20;;;8.00;99.90;;;;;;5050999;28;20036;-67
2022/11/28 07:29:37;;;;;;;22.98;17.15;;;8.00;99.90;;;;;;5042991;28;20067;-67
2022/11/28 07:32:05;;;;;;;21.35;16.58;;;8.10;99.90;;;;;;5054481;28;20036;-67
2022/11/28 07:34:31;;;;;;;21.73;15.82;;;8.10;99.90;;;;;;5062554;28;20056;-67
2022/11/28 07:36:56;;;;;;;19.95;16.08;;;8.00;99.90;;;;;;5056005;28;20101;-67
2022/11/28 07:39:22;;;;;;;18.80;15.68;;;8.10;99.90;;;;;;5046490;28;20154;-67
2022/11/28 07:41:49;;;;;;;19.75;14.65;;;8.10;99.90;;;;;;5053595;28;20044;-67
2022/11/28 07:44:16;;;;;;;19.88;15.85;;;8.00;99.90;;;;;;5059937;28;20081;-67
2022/11/28 07:46:46;;;;;;;18.70;14.65;;;8.00;99.90;;;;;;5072673;28;20051;-67
2022/11/28 07:49:13;;;;;;;17.17;14.15;;;8.10;99.90;;;;;;5058089;28;20044;-67
2022/11/28 07:51:39;;;;;;;19.40;13.70;;;8.10;99.90;;;;;;5050463;28;20421;-67
2022/11/28 07:54:06;;;;;;;17.17;14.18;;;8.30;99.90;;;;;;5046768;28;20048;-67
2022/11/28 07:56:34;;;;;;;16.65;13.57;;;8.20;99.90;;;;;;5041922;28;20064;-67
2022/11/28 07:59:00;;;;;;;16.25;13.75;;;8.20;99.90;;;;;;5061294;28;20056;-67
2022/11/28 08:01:31;;;;;;;18.88;14.25;;;8.10;99.90;;;;;;5028234;28;20065;-67
2022/11/28 08:03:58;;;;;;;15.65;13.40;;;8.20;99.90;;;;;;5063256;28;20048;-67
2022/11/28 08:06:27;;;;;;;18.05;14.07;;;8.20;99.90;;;;;;5044854;28;20266;-67
2022/11/28 08:08:54;;;;;;;16.30;13.27;;;8.20;99.90;;;;;;5041173;28;20174;-68
2022/11/28 08:11:22;;;;;;;16.80;13.63;;;8.20;99.90;;;;;;5026770;28;20060;-67
2022/11/28 08:13:48;;;;;;;18.92;14.00;;;8.10;99.90;;;;;;5051830;28;20132;-67
2022/11/28 08:16:19;;;;;;;17.23;13.65;;;8.10;99.90;;;;;;5037135;28;20401;-67
2022/11/28 08:18:46;;;;;;;16.33;13.63;;;8.10;99.90;;;;;;5041205;28;20048;-67
2022/11/28 08:21:25;;;;;;;18.95;14.35;;;8.00;99.90;;;;;;5027588;28;20034;-67
2022/11/28 08:23:52;;;;;;;18.80;14.45;;;8.20;99.90;;;;;;5035323;28;20107;-67
2022/11/28 08:26:20;;;;;;;18.13;13.68;;;8.20;99.90;;;;;;5031818;28;20041;-67
2022/11/28 08:28:46;;;;;;;18.30;14.00;;;8.20;99.90;;;;;;5043265;28;20045;-64
2022/11/28 08:31:24;;;;;;;17.55;13.63;;;8.30;99.90;;;;;;5044451;28;20041;-65
2022/11/28 08:33:52;;;;;;;20.55;15.77;;;8.20;99.90;;;;;;5025506;28;20040;-65
2022/11/28 08:36:19;;;;;;;19.73;15.40;;;8.20;99.90;;;;;;5045309;28;20329;-65
2022/11/28 08:38:46;;;;;;;18.55;14.55;;;8.20;99.90;;;;;;5043382;28;20113;-65
2022/11/28 08:41:17;;;;;;;18.33;13.98;;;8.10;99.90;;;;;;5045006;28;20080;-64
2022/11/28 08:43:44;;;;;;;18.55;14.60;;;8.10;99.90;;;;;;5059774;28;20076;-65
2022/11/28 08:46:14;;;;;;;16.75;14.02;;;8.10;99.90;;;;;;5079767;28;20042;-65
2022/11/28 08:48:40;;;;;;;19.13;15.13;;;8.20;99.90;;;;;;5045882;28;20482;-65
2022/11/28 08:51:08;;;;;;;18.85;14.30;;;8.10;99.90;;;;;;5048078;28;20079;-65
2022/11/28 08:53:34;;;;;;;17.00;13.95;;;8.20;99.90;;;;;;5049712;28;20083;-65
2022/11/28 08:56:00;;;;;;;17.95;14.15;;;8.20;99.90;;;;;;5063293;28;20063;-65
2022/11/28 08:58:25;;;;;;;18.20;14.48;;;8.30;99.90;;;;;;5051906;28;20044;-65
2022/11/28 09:00:51;;;;;;;19.02;14.85;;;8.30;99.90;;;;;;5064801;28;20040;-65
2022/11/28 09:03:18;;;;;;;18.70;15.25;;;8.20;99.90;;;;;;5052812;28;20042;-65
2022/11/28 09:05:46;;;;;;;17.63;15.13;;;8.10;99.90;;;;;;5057030;28;20040;-65
2022/11/28 09:08:16;;;;;;;17.65;14.77;;;8.20;99.90;;;;;;5050298;28;20041;-65
2022/11/28 09:10:43;;;;;;;17.48;14.95;;;8.20;99.90;;;;;;5056059;28;20372;-65
2022/11/28 09:13:09;;;;;;;19.30;15.30;;;8.30;99.90;;;;;;5021000;28;20052;-65
2022/11/28 09:15:42;;;;;;;19.92;14.77;;;8.20;99.90;;;;;;5060734;28;20095;-66
2022/11/28 09:18:08;;;;;;;18.58;15.63;;;8.10;99.90;;;;;;5021199;28;20045;-65
2022/11/28 09:20:34;;;;;;;16.92;14.30;;;8.20;99.90;;;;;;5039548;28;20190;-66
2022/11/28 09:23:00;;;;;;;15.93;13.68;;;8.30;99.90;;;;;;5054802;28;20045;-65
2022/11/28 09:25:26;;;;;;;18.35;14.77;;;8.40;99.90;;;;;;5030555;28;20055;-65
2022/11/28 09:27:51;;;;;;;17.75;13.60;;;8.40;99.90;;;;;;5045257;28;20150;-65
2022/11/28 09:30:21;;;;;;;17.88;14.75;;;8.40;99.90;;;;;;5054214;28;20345;-65
2022/11/28 09:32:48;;;;;;;17.40;14.57;;;8.40;99.90;;;;;;5028967;28;20052;-65
2022/11/28 09:35:14;;;;;;;16.35;13.88;;;8.40;99.90;;;;;;5054454;28;20098;-65
2022/11/28 09:37:40;;;;;;;18.25;14.82;;;8.50;99.90;;;;;;5030689;28;20443;-65
2022/11/28 09:40:13;;;;;;;17.23;14.50;;;8.40;99.90;;;;;;5072131;28;20040;-64
2022/11/28 09:42:42;;;;;;;16.63;13.35;;;8.40;99.90;;;;;;5050322;28;20056;-66
2022/11/28 09:45:14;;;;;;;15.48;13.05;;;8.50;99.90;;;;;;5054359;28;20048;-65
2022/11/28 09:47:44;;;;;;;16.33;14.02;;;8.40;99.90;;;;;;5039458;28;20055;-67
2022/11/28 09:50:19;;;;;;;15.63;13.93;;;8.40;99.90;;;;;;5060804;28;20083;-65
2022/11/28 09:52:48;;;;;;;15.82;13.45;;;8.40;99.90;;;;;;5041453;28;20493;-65
2022/11/28 09:55:25;;;;;;;17.15;13.82;;;8.40;99.90;;;;;;5079806;28;20076;-65
2022/11/28 09:57:53;;;;;;;16.23;14.02;;;8.40;99.90;;;;;;5044358;28;20532;-65
2022/11/28 10:00:22;;;;;;;16.77;13.38;;;8.40;99.90;;;;;;5062500;28;20040;-65
2022/11/28 10:03:14;;;;;;;16.52;14.00;;;8.30;99.90;;;;;;5060953;28;20066;-65
2022/11/28 10:06:00;;;;;;;17.33;14.27;;;8.30;99.90;;;;;;5041919;28;20049;-65
2022/11/28 10:08:50;;;;;;;15.98;13.55;;;8.40;99.90;;;;;;5036727;28;20147;-65
2022/11/28 10:11:29;;;;;;;16.33;14.25;;;8.50;99.90;;;;;;5048384;28;20067;-65
2022/11/28 10:14:40;;;;;;;17.00;13.82;;;8.40;99.90;;;;;;5046676;28;20052;-65
2022/11/28 10:17:32;;;;;;;16.33;13.57;;;8.40;99.90;;;;;;5030768;28;20056;-65
2022/11/28 10:20:17;;;;;;;17.30;13.77;;;8.40;99.90;;;;;;5055890;28;20052;-65
2022/11/28 10:23:18;;;;;;;16.95;14.80;;;8.40;99.90;;;;;;5050215;28;20049;-65
2022/11/28 10:25:52;;;;;;;16.00;14.27;;;8.50;99.90;;;;;;4940378;28;20105;-65
2022/11/28 10:28:40;;;;;;;16.75;13.95;;;8.50;99.90;;;;;;4953901;28;20055;-65
2022/11/28 10:31:18;;;;;;;19.92;14.27;;;8.40;99.90;;;;;;4960228;28;20368;-65
2022/11/28 10:33:49;;;;;;;17.23;14.32;;;8.50;99.90;;;;;;4954334;28;20067;-65
2022/11/28 10:36:30;;;;;;;16.15;13.32;;;8.50;99.90;;;;;;4973991;28;20066;-65
2022/11/28 10:38:59;;;;;;;15.05;13.45;;;8.40;99.90;;;;;;4948597;28;20123;-65
2022/11/28 10:41:41;;;;;;;17.02;14.05;;;8.40;99.90;;;;;;4974952;28;20077;-65
2022/11/28 10:44:14;;;;;;;17.65;14.00;;;8.40;99.90;;;;;;4979857;28;20543;-65
2022/11/28 10:46:48;;;;;;;17.17;13.20;;;8.50;99.90;;;;;;4995579;28;20057;-65
2022/11/28 10:49:46;;;;;;;14.77;12.48;;;8.50;99.90;;;;;;4967323;28;20098;-65
2022/11/28 10:52:25;;;;;;;15.10;13.05;;;8.40;99.90;;;;;;4971162;28;20054;-68
2022/11/28 10:55:21;;;;;;;15.18;13.18;;;8.40;99.90;;;;;;4951814;28;20523;-70
2022/11/28 10:58:03;;;;;;;18.15;13.50;;;8.40;99.90;;;;;;4978554;28;20054;-70
2022/11/28 11:00:29;;;;;;;15.25;13.40;;;8.40;99.90;;;;;;4959151;28;20441;-70
2022/11/28 11:02:57;;;;;;;16.00;12.85;;;8.60;99.90;;;;;;5046259;28;20981;-67
2022/11/28 11:05:25;;;;;;;16.42;13.43;;;8.50;99.90;;;;;;5027094;28;20040;-67
2022/11/28 11:08:10;;;;;;;17.35;13.68;;;8.50;99.90;;;;;;5038649;28;20049;-68
2022/11/28 11:10:48;;;;;;;17.13;13.82;;;8.60;99.90;;;;;;4994770;28;20069;-67
2022/11/28 11:13:23;;;;;;;16.25;13.50;;;8.50;99.90;;;;;;5024231;28;20132;-67
2022/11/28 11:16:00;;;;;;;14.52;12.50;;;8.50;99.90;;;;;;5068070;28;20764;-67
2022/11/28 11:18:35;;;;;;;14.90;12.25;;;8.50;99.90;;;;;;5033252;28;20118;-67
2022/11/28 11:21:21;;;;;;;14.65;12.65;;;8.40;99.90;;;;;;5053276;28;20130;-66
2022/11/28 11:23:49;;;;;;;15.90;13.88;;;8.50;99.90;;;;;;5040943;28;20084;-66
2022/11/28 11:26:31;;;;;;;16.05;13.63;;;8.50;99.90;;;;;;5038958;28;20048;-66
2022/11/28 11:28:56;;;;;;;16.27;13.20;;;8.50;99.90;;;;;;5039940;28;20056;-66
2022/11/28 11:31:25;;;;;;;16.08;13.32;;;8.60;99.90;;;;;;5051578;28;20363;-66
2022/11/28 11:34:00;;;;;;;16.98;14.82;;;8.50;99.90;;;;;;5017813;28;20102;-67
2022/11/28 11:36:35;;;;;;;14.93;13.25;;;8.50;99.90;;;;;;5051266;28;20045;-66
2022/11/28 11:39:19;;;;;;;17.60;13.80;;;8.60;99.90;;;;;;5064667;28;20084;-67
2022/11/28 11:42:10;;;;;;;14.93;13.32;;;8.60;99.90;;;;;;5057047;28;20108;-66
2022/11/28 11:44:36;;;;;;;18.17;14.80;;;8.50;99.90;;;;;;5037434;28;20155;-66
2022/11/28 11:47:09;;;;;;;17.27;15.27;;;8.60;99.90;;;;;;5042999;28;20045;-67
2022/11/28 11:49:41;;;;;;;17.80;15.60;;;8.60;99.90;;;;;;5044272;28;20119;-66
2022/11/28 11:52:25;;;;;;;17.98;14.65;;;8.60;99.90;;;;;;5046667;28;20053;-66
2022/11/28 11:54:53;;;;;;;16.60;14.32;;;8.60;99.90;;;;;;5064632;28;20151;-66
2022/11/28 11:57:45;;;;;;;15.57;13.90;;;8.60;99.90;;;;;;5042167;28;20048;-66
2022/11/28 12:00:17;;;;;;;15.35;13.23;;;8.70;99.90;;;;;;5036132;28;20041;-66
2022/11/28 12:02:48;;;;;;;14.30;12.25;;;8.60;99.90;;;;;;5042073;28;20110;-66
2022/11/28 12:05:19;;;;;;;15.93;14.15;;;8.70;99.90;;;;;;5049090;28;20068;-67
2022/11/28 12:07:48;;;;;;;17.90;15.95;;;8.60;99.90;;;;;;5063048;28;20047;-66
2022/11/28 12:10:18;;;;;;;15.43;13.27;;;8.70;99.90;;;;;;5049780;28;20044;-66
2022/11/28 12:12:44;;;;;;;15.10;12.68;;;8.70;99.90;;;;;;5080451;28;20515;-66
2022/11/28 12:15:31;;;;;;;16.35;13.25;;;8.60;99.90;;;;;;5044701;28;20065;-66
2022/11/28 12:18:26;;;;;;;16.05;13.93;;;8.50;99.90;;;;;;5038965;28;20136;-66
2022/11/28 12:21:01;;;;;;;15.38;12.70;;;8.60;99.90;;;;;;5025179;28;20048;-67
2022/11/28 12:23:53;;;;;;;15.25;12.07;;;8.60;99.90;;;;;;5030258;28;20052;-66
2022/11/28 12:26:24;;;;;;;14.73;13.13;;;8.50;99.90;;;;;;5035260;28;20053;-66
2022/11/28 12:29:01;;;;;;;18.25;13.57;;;8.50;99.90;;;;;;5023387;28;20063;-67
2022/11/28 12:31:48;;;;;;;15.85;12.55;;;8.50;99.90;;;;;;5060006;28;20071;-66
2022/11/28 12:34:31;;;;;;;14.45;12.57;;;8.50;99.90;;;;;;5041932;28;20108;-66
2022/11/28 12:37:22;;;;;;;15.48;12.80;;;8.60;99.90;;;;;;5032015;28;20041;-66
2022/11/28 12:40:12;;;;;;;16.08;12.60;;;8.50;99.90;;;;;;5032692;28;20053;-66
2022/11/28 12:43:05;;;;;;;19.15;16.15;;;8.60;99.90;;;;;;5052650;28;20044;-66
2022/11/28 12:45:37;;;;;;;13.80;12.13;;;8.60;99.90;;;;;;5048502;28;20539;-66
2022/11/28 12:48:11;;;;;;;14.93;12.95;;;8.50;99.90;;;;;;5032425;28;20052;-66
2022/11/28 12:50:38;;;;;;;14.52;12.25;;;8.50;99.90;;;;;;5071953;28;20110;-66
2022/11/28 12:53:30;;;;;;;15.77;13.55;;;8.50;99.90;;;;;;5039335;28;20059;-66
2022/11/28 12:56:14;;;;;;;14.02;11.68;;;8.50;99.90;;;;;;5012094;28;20075;-67
2022/11/28 12:58:46;;;;;;;13.75;11.90;;;8.60;99.90;;;;;;5023872;28;20045;-67
2022/11/28 13:01:34;;;;;;;13.45;11.95;;;8.50;99.90;;;;;;5055083;28;20044;-67
2022/11/28 13:04:28;;;;;;;14.50;12.38;;;8.50;99.90;;;;;;5033704;28;20072;-67
2022/11/28 13:07:27;;;;;;;14.57;12.63;;;8.60;99.90;;;;;;5046101;28;20077;-66
2022/11/28 13:10:23;;;;;;;15.93;13.38;;;8.60;99.90;;;;;;5045382;28;20568;-66